Pacific Treasures — V7FM9 — position and weather

sailwx.info

Track history (hours):
 
Tides and Currents Weather Stations Pressure Air Temp Water Temp Dewpoint Dewpoint Depression Visibility Wind Speed Wind Dir Waves Ship Positions

Pacific Treasures

Last reported at 2017-Nov-23 07:28 UTC. Time now 2017-Nov-23 07:39 UTC.
Position N 38°36' W 074°48'.

Length 256 m; draft 8.3 m.

Type: Tanker. MMSI: 538006773.

Date/timePositionNaut miles runAvg speedWind from/ knotsBaromVisibWave heightAir tempDewpointWater temp
2017-Nov-23 07:28N 38°36' W 074°48'3 6.0
2017-Nov-23 06:59N 38°34' W 074°46'3 6.1
2017-Nov-23 06:25N 38°33' W 074°41'2 5.2
2017-Nov-23 06:00N 38°33' W 074°39'  
2017-Nov-20 00:29N 38°60' W 075°13'0 0.0
2017-Nov-19 23:59N 39°00' W 075°13'0 0.3
2017-Nov-19 23:29N 38°60' W 075°13'0 0.6
2017-Nov-19 23:00N 38°60' W 075°13'2 3.3
2017-Nov-19 22:30N 38°58' W 075°12'4 8.7
2017-Nov-19 22:00N 38°55' W 075°08'8 9.0
2017-Nov-19 21:06N 39°03' W 075°10'214.6
2017-Nov-19 20:57N 39°05' W 075°11'715.1
2017-Nov-19 20:31N 39°11' W 075°16'815.6
2017-Nov-19 20:00N 39°17' W 075°22'816.0
2017-Nov-19 19:30N 39°23' W 075°29'714.4
2017-Nov-19 19:01N 39°29' W 075°34'510.1
2017-Nov-19 18:31N 39°34' W 075°34'2 2.8
2017-Nov-19 17:59N 39°35' W 075°35'0 0.0
2017-Nov-19 17:29N 39°35' W 075°35'0 0.0
2017-Nov-19 16:59N 39°35' W 075°35'0 0.0
2017-Nov-19 16:29N 39°35' W 075°35'0 0.0
2017-Nov-19 15:59N 39°35' W 075°35'0 0.0
2017-Nov-19 15:29N 39°35' W 075°35'0 0.0
2017-Nov-19 14:59N 39°35' W 075°35'0 0.0
2017-Nov-19 14:29N 39°35' W 075°35'0 0.0
2017-Nov-19 13:59N 39°35' W 075°35'0 0.0
2017-Nov-19 13:29N 39°35' W 075°35'0 0.0
2017-Nov-19 12:59N 39°35' W 075°35'0 0.0
2017-Nov-19 12:29N 39°35' W 075°35'0 0.0
2017-Nov-19 11:59N 39°35' W 075°35'0 0.0
2017-Nov-19 11:29N 39°35' W 075°35'0 0.0
2017-Nov-19 10:59N 39°35' W 075°35'0 0.0
2017-Nov-19 10:29N 39°35' W 075°35'0 0.0
2017-Nov-19 09:53N 39°35' W 075°35'0 0.0
2017-Nov-19 09:29N 39°35' W 075°35'0 0.0
2017-Nov-19 08:59N 39°35' W 075°35'0 0.0
2017-Nov-19 08:29N 39°35' W 075°35'0 0.0
2017-Nov-19 07:59N 39°35' W 075°35'0 0.0
2017-Nov-19 07:29N 39°35' W 075°35'0 0.0
2017-Nov-19 06:59N 39°35' W 075°35'0 0.0
2017-Nov-19 06:29N 39°35' W 075°35'0 0.0
2017-Nov-19 05:59N 39°35' W 075°35'0 0.0
2017-Nov-19 05:29N 39°35' W 075°35'0 0.0
2017-Nov-19 04:59N 39°35' W 075°35'0 0.0
2017-Nov-19 04:29N 39°35' W 075°35'0 0.0
2017-Nov-19 03:59N 39°35' W 075°35'0 0.0
2017-Nov-19 03:29N 39°35' W 075°35'0 0.0
2017-Nov-19 02:59N 39°35' W 075°35'0 0.0
2017-Nov-19 02:29N 39°35' W 075°35'0 0.0
2017-Nov-19 01:59N 39°35' W 075°35'0 0.0
2017-Nov-19 01:29N 39°35' W 075°35'0 0.0
2017-Nov-19 00:59N 39°35' W 075°35'0 0.0
2017-Nov-19 00:29N 39°35' W 075°35'0 0.0
2017-Nov-18 23:59N 39°35' W 075°35'0 0.0
2017-Nov-18 23:29N 39°35' W 075°35'0 0.0
2017-Nov-18 22:59N 39°35' W 075°35'0 0.0
2017-Nov-18 22:29N 39°35' W 075°35'0 0.0
2017-Nov-18 21:59N 39°35' W 075°35'0 0.0
2017-Nov-18 21:29N 39°35' W 075°35'0 0.0
2017-Nov-18 20:59N 39°35' W 075°35'0 0.0
2017-Nov-18 20:29N 39°35' W 075°35'0 0.0
2017-Nov-18 19:59N 39°35' W 075°35'0 0.0
2017-Nov-18 19:29N 39°35' W 075°35'0 0.0
2017-Nov-18 18:59N 39°35' W 075°35'0 0.1
2017-Nov-18 18:31N 39°35' W 075°35'2 3.7
2017-Nov-18 18:01N 39°34' W 075°33'0 0.7
2017-Nov-18 17:31N 39°34' W 075°33'2 4.0
2017-Nov-18 17:00N 39°36' W 075°34'3 5.6
2017-Nov-18 16:30N 39°39' W 075°33'4 8.9
2017-Nov-18 16:00N 39°43' W 075°31'4 8.0
2017-Nov-18 15:30N 39°46' W 075°28'3 6.4
2017-Nov-18 15:00N 39°48' W 075°25'0 0.4
2017-Nov-18 14:29N 39°48' W 075°25'0 0.0
2017-Nov-18 13:59N 39°48' W 075°25'0 0.0
2017-Nov-18 13:29N 39°48' W 075°25'0 0.2
2017-Nov-18 12:59N 39°48' W 075°25'0 0.4
2017-Nov-18 12:29N 39°48' W 075°25'0 0.1
2017-Nov-18 11:59N 39°48' W 075°25'0 0.0
2017-Nov-18 11:29N 39°48' W 075°25'0 0.0
2017-Nov-18 10:59N 39°48' W 075°25'0 0.0
2017-Nov-18 10:29N 39°48' W 075°25'0 0.0
2017-Nov-18 09:59N 39°48' W 075°25'0 0.0
2017-Nov-18 09:29N 39°48' W 075°25'0 0.0
2017-Nov-18 08:59N 39°48' W 075°25'0 0.0
2017-Nov-18 08:29N 39°48' W 075°25'0 0.0
2017-Nov-18 07:59N 39°48' W 075°25'0 0.6
2017-Nov-18 07:29N 39°48' W 075°25'0 0.2
2017-Nov-18 06:59N 39°48' W 075°25'0 0.0
2017-Nov-18 06:29N 39°48' W 075°25'0 0.0
2017-Nov-18 05:59N 39°48' W 075°25'0 0.0
2017-Nov-18 05:29N 39°48' W 075°25'0 0.0
2017-Nov-18 04:59N 39°48' W 075°25'0 0.0
2017-Nov-18 04:29N 39°48' W 075°25'0 0.0
2017-Nov-18 03:59N 39°48' W 075°25'0 0.0
2017-Nov-18 03:29N 39°48' W 075°25'0 0.0
2017-Nov-18 02:59N 39°48' W 075°25'0 0.0
2017-Nov-18 02:29N 39°48' W 075°25'0 0.0
2017-Nov-18 01:59N 39°48' W 075°25'0 0.0
2017-Nov-18 01:29N 39°48' W 075°25'0 0.0
2017-Nov-18 00:56N 39°48' W 075°25'0 0.0
2017-Nov-18 00:26N 39°48' W 075°25'0 0.0
2017-Nov-17 23:59N 39°48' W 075°25'0 0.0
2017-Nov-17 23:29N 39°48' W 075°25'0 0.0
2017-Nov-17 22:59N 39°48' W 075°25'0 0.0
2017-Nov-17 22:29N 39°48' W 075°25'0 0.0
2017-Nov-17 21:59N 39°48' W 075°25'0 0.0
2017-Nov-17 21:29N 39°48' W 075°25'0 0.0
2017-Nov-17 20:59N 39°48' W 075°25'0 0.0
2017-Nov-17 20:29N 39°48' W 075°25'0 0.0
2017-Nov-17 19:59N 39°48' W 075°25'0 0.0
2017-Nov-17 19:29N 39°48' W 075°25'0 0.0
2017-Nov-17 18:59N 39°48' W 075°25'0 0.0
2017-Nov-17 18:29N 39°48' W 075°25'0 0.0
2017-Nov-17 17:59N 39°48' W 075°25'0 0.0
2017-Nov-17 17:29N 39°48' W 075°25'0 0.0
2017-Nov-17 16:59N 39°48' W 075°25'0 0.0
2017-Nov-17 16:26N 39°48' W 075°25'0 0.0
2017-Nov-17 15:59N 39°48' W 075°25'0 0.0
2017-Nov-17 15:29N 39°48' W 075°25'0 0.0
2017-Nov-17 15:00N 39°48' W 075°25'0 0.3
2017-Nov-17 14:31N 39°48' W 075°25'3 5.5
2017-Nov-17 14:01N 39°47' W 075°28'5 9.5
2017-Nov-17 13:30N 39°42' W 075°31'612.4
2017-Nov-17 13:00N 39°37' W 075°35'612.4
2017-Nov-17 12:31N 39°31' W 075°33'611.3
2017-Nov-17 12:00N 39°25' W 075°31'713.2
2017-Nov-17 11:30N 39°21' W 075°26'612.9
2017-Nov-17 11:00N 39°16' W 075°20'612.7
2017-Nov-17 10:30N 39°10' W 075°16'612.8
2017-Nov-17 10:00N 39°05' W 075°11'612.8
2017-Nov-17 09:30N 38°59' W 075°08'511.0
2017-Nov-17 09:00N 38°54' W 075°06'3 5.8
2017-Nov-17 08:30N 38°55' W 075°09'5 8.0
2017-Nov-17 07:53N 38°59' W 075°12'1 1.5
2017-Nov-17 07:30N 38°59' W 075°13'0 0.1
2017-Nov-17 06:59N 38°59' W 075°13'0 0.0
2017-Nov-17 06:29N 38°59' W 075°13'0 0.1
2017-Nov-17 05:59N 38°59' W 075°13'0 0.0
2017-Nov-17 05:29N 38°59' W 075°13'0 0.0
2017-Nov-17 04:59N 38°59' W 075°13'0 0.0
2017-Nov-17 04:29N 38°59' W 075°13'0 0.0
2017-Nov-17 03:59N 38°59' W 075°13'0 0.0
2017-Nov-17 03:29N 38°59' W 075°13'0 0.0
2017-Nov-17 02:59N 38°59' W 075°13'0 0.0
2017-Nov-17 02:29N 38°59' W 075°13'0 0.0
2017-Nov-17 01:59N 38°59' W 075°13'0 0.0
2017-Nov-17 01:29N 38°59' W 075°13'0 0.2
2017-Nov-17 00:59N 38°59' W 075°13'0 0.3
2017-Nov-17 00:29N 38°59' W 075°13'0 0.1
2017-Nov-16 23:59N 38°59' W 075°13'0 0.0
2017-Nov-16 22:50N 38°59' W 075°13'0 0.1
2017-Nov-16 22:08N 38°59' W 075°13'0 0.1
2017-Nov-16 21:56N 38°59' W 075°13'0 0.1
2017-Nov-16 21:26N 38°59' W 075°13'0 0.2
2017-Nov-16 20:59N 38°59' W 075°13'0 0.1
2017-Nov-16 20:29N 38°59' W 075°13'0 0.1
2017-Nov-16 19:59N 38°59' W 075°13'0 0.0
2017-Nov-16 19:29N 38°59' W 075°13'0 0.0
2017-Nov-16 18:59N 38°59' W 075°13'0 0.0
2017-Nov-16 18:29N 38°59' W 075°13'0 0.1
2017-Nov-16 17:59N 38°59' W 075°13'0 0.1
2017-Nov-16 17:26N 38°59' W 075°13'0 0.0
2017-Nov-16 16:59N 38°59' W 075°13'0 0.0
2017-Nov-16 16:26N 38°59' W 075°13'0 0.0
2017-Nov-16 15:59N 38°59' W 075°13'0 0.1
2017-Nov-16 15:29N 38°59' W 075°13'0 0.1
2017-Nov-16 14:59N 38°59' W 075°13'0 0.0
2017-Nov-16 14:29N 38°59' W 075°13'0 0.2
2017-Nov-16 13:59N 38°59' W 075°13'0 0.2
2017-Nov-16 13:26N 38°59' W 075°13'0 0.1
2017-Nov-16 12:47N 38°59' W 075°13'0 0.0
2017-Nov-16 12:23N 38°59' W 075°13'0 0.0
2017-Nov-16 11:53N 38°59' W 075°13'0 0.0
2017-Nov-16 11:11N 38°59' W 075°13'0 0.0
2017-Nov-16 10:59N 38°59' W 075°13'0 0.0
2017-Nov-16 09:44N 38°59' W 075°13'0 0.0
2017-Nov-16 09:14N 38°59' W 075°13'0 0.2
2017-Nov-16 08:59N 38°59' W 075°13'0 0.3
2017-Nov-16 08:26N 38°59' W 075°13'0 0.2
2017-Nov-16 07:59N 38°59' W 075°13'0 0.1
2017-Nov-16 07:29N 38°59' W 075°13'0 0.0
2017-Nov-16 06:59N 38°59' W 075°13'0 0.0
2017-Nov-16 06:29N 38°59' W 075°13'0 0.0
2017-Nov-16 05:59N 38°59' W 075°13'0 0.0
2017-Nov-16 05:29N 38°59' W 075°13'0 0.0
2017-Nov-16 04:59N 38°59' W 075°13'0 0.0
2017-Nov-16 04:29N 38°59' W 075°13'0 0.0
2017-Nov-16 03:59N 38°59' W 075°13'0 0.0
2017-Nov-16 03:29N 38°59' W 075°13'0 0.3
2017-Nov-16 02:59N 38°59' W 075°13'0 0.2
2017-Nov-16 01:53N 38°59' W 075°13'0 0.0
2017-Nov-16 00:59N 38°59' W 075°13'0 0.1
2017-Nov-16 00:29N 38°59' W 075°13'0 0.1
2017-Nov-15 23:53N 38°59' W 075°13'0 0.0
2017-Nov-15 23:20N 38°59' W 075°13'0 0.0
2017-Nov-15 22:59N 38°59' W 075°13'0 0.0
2017-Nov-15 22:29N 38°59' W 075°13'0 0.0
2017-Nov-15 21:59N 38°59' W 075°13'0 0.0
2017-Nov-15 21:29N 38°59' W 075°13'0 0.1
2017-Nov-15 20:53N 38°59' W 075°13'0 0.4
2017-Nov-15 20:29N 38°59' W 075°13'0 0.1
2017-Nov-15 19:56N 38°59' W 075°13'0 0.0
2017-Nov-15 19:29N 38°59' W 075°13'0 0.0
2017-Nov-15 18:59N 38°59' W 075°13'0 0.0
2017-Nov-15 18:26N 38°59' W 075°13'0 0.1
2017-Nov-15 17:59N 38°59' W 075°13'0 0.0
2017-Nov-15 17:29N 38°59' W 075°13'0 0.0
2017-Nov-15 16:59N 38°59' W 075°13'0 0.0
2017-Nov-15 16:29N 38°59' W 075°13'0 0.0
2017-Nov-15 15:56N 38°59' W 075°13'0 0.1
2017-Nov-15 15:29N 38°59' W 075°13'0 0.1
2017-Nov-15 14:59N 38°59' W 075°13'0 0.1
2017-Nov-15 14:29N 38°59' W 075°13'0 0.0
2017-Nov-15 13:59N 38°59' W 075°13'0 0.0
2017-Nov-15 13:29N 38°59' W 075°13'0 0.0
2017-Nov-15 12:59N 38°59' W 075°13'0 0.2
2017-Nov-15 12:29N 38°59' W 075°13'0 0.2
2017-Nov-15 11:56N 38°59' W 075°13'0 0.1
2017-Nov-15 11:29N 38°59' W 075°13'0 0.0
2017-Nov-15 10:59N 38°59' W 075°13'0 0.0
2017-Nov-15 10:29N 38°59' W 075°13'0 0.0
2017-Nov-15 09:59N 38°59' W 075°13'0 0.0
2017-Nov-15 09:29N 38°59' W 075°13'0 0.0
2017-Nov-15 08:59N 38°59' W 075°13'0 0.1
2017-Nov-15 08:29N 38°59' W 075°13'0 0.1
2017-Nov-15 07:59N 38°59' W 075°13'0 0.3
2017-Nov-15 07:29N 38°59' W 075°13'0 0.2
2017-Nov-15 06:59N 38°59' W 075°13'0 0.0
2017-Nov-15 06:29N 38°59' W 075°13'0 0.0
2017-Nov-15 05:59N 38°59' W 075°13'0 0.0
2017-Nov-15 05:29N 38°59' W 075°13'0 0.0
2017-Nov-15 04:59N 38°59' W 075°13'0 0.0
2017-Nov-15 04:29N 38°59' W 075°13'0 0.0
2017-Nov-15 03:56N 38°59' W 075°13'0 0.0
2017-Nov-15 03:29N 38°59' W 075°13'0 0.0
2017-Nov-15 02:59N 38°59' W 075°13'0 0.0
2017-Nov-15 02:26N 38°59' W 075°13'0 0.0
2017-Nov-15 01:59N 38°59' W 075°13'0 0.0
2017-Nov-15 01:29N 38°59' W 075°13'0 0.0
2017-Nov-15 00:59N 38°59' W 075°13'0 0.1
2017-Nov-15 00:29N 38°59' W 075°13'0 0.2
2017-Nov-14 23:59N 38°59' W 075°13'0 0.2
2017-Nov-14 23:29N 38°59' W 075°13'0 0.0
2017-Nov-14 22:59N 38°59' W 075°13'0 0.0
2017-Nov-14 22:29N 38°59' W 075°13'0 0.0
2017-Nov-14 21:59N 38°59' W 075°13'0 0.1
2017-Nov-14 20:59N 38°59' W 075°13'0 0.1
2017-Nov-14 20:26N 38°59' W 075°13'0 0.4
2017-Nov-14 19:56N 38°59' W 075°13'0 0.1
2017-Nov-14 19:29N 38°59' W 075°13'0 0.0
2017-Nov-14 18:56N 38°59' W 075°13'0 0.0
2017-Nov-14 18:29N 38°59' W 075°13'0 0.0
2017-Nov-14 17:59N 38°59' W 075°13'0 0.0
2017-Nov-14 17:29N 38°59' W 075°13'0 0.0
2017-Nov-14 16:59N 38°59' W 075°13'0 0.0
2017-Nov-14 16:29N 38°59' W 075°13'0 0.0
2017-Nov-14 15:59N 38°59' W 075°13'0 0.0
2017-Nov-14 15:29N 38°59' W 075°13'0 0.0
2017-Nov-14 14:59N 38°59' W 075°13'0 0.0
2017-Nov-14 14:29N 38°59' W 075°13'0 0.0
2017-Nov-14 13:59N 38°59' W 075°13'0 0.0
2017-Nov-14 13:29N 38°59' W 075°13'0 0.0
2017-Nov-14 12:59N 38°59' W 075°13'0 0.0
2017-Nov-14 12:26N 38°59' W 075°13'0 0.1
2017-Nov-14 11:59N 38°59' W 075°13'0 0.3
2017-Nov-14 11:29N 38°59' W 075°13'0 0.2
2017-Nov-14 10:59N 38°59' W 075°13'0 0.1
2017-Nov-14 10:29N 38°59' W 075°13'0 0.0
2017-Nov-14 09:59N 38°59' W 075°13'0 0.0
2017-Nov-14 09:29N 38°59' W 075°13'0 0.0
2017-Nov-14 08:59N 38°59' W 075°13'0 0.0
2017-Nov-14 08:29N 38°59' W 075°13'0 0.2
2017-Nov-14 07:59N 38°59' W 075°13'0 0.2
2017-Nov-14 07:29N 38°59' W 075°13'0 0.2
2017-Nov-14 06:59N 38°59' W 075°13'0 0.1
2017-Nov-14 06:29N 38°59' W 075°13'0 0.1
2017-Nov-14 05:56N 38°59' W 075°13'0 0.0
2017-Nov-14 05:29N 38°59' W 075°13'0 0.0
2017-Nov-14 04:59N 38°59' W 075°13'0 0.0
2017-Nov-14 04:29N 38°59' W 075°13'0 0.0
2017-Nov-14 03:59N 38°59' W 075°13'0 0.0
2017-Nov-14 03:23N 38°59' W 075°13'0 0.0
2017-Nov-14 02:59N 38°59' W 075°13'0 0.0
2017-Nov-14 02:29N 38°59' W 075°13'0 0.0
2017-Nov-14 01:56N 38°59' W 075°13'0 0.0
2017-Nov-14 01:29N 38°59' W 075°13'0 0.0
2017-Nov-14 00:59N 38°59' W 075°13'0 0.0
2017-Nov-14 00:29N 38°59' W 075°13'0 0.0
2017-Nov-13 23:59N 38°59' W 075°13'0 0.3
2017-Nov-13 23:29N 38°59' W 075°13'0 0.2
2017-Nov-13 22:59N 38°59' W 075°13'0 0.1
2017-Nov-13 22:29N 38°59' W 075°13'0 0.1
2017-Nov-13 21:56N 38°59' W 075°13'  
Track history (hours):
 
Tides and Currents Weather Stations Pressure Air Temp Water Temp Dewpoint Dewpoint Depression Visibility Wind Speed Wind Dir Waves Ship Positions

Pacific Treasures

Last reported at 2017-Nov-23 07:28 UTC. Time now 2017-Nov-23 07:39 UTC.
Position N 38°36' W 074°48'.

Length 256 m; draft 8.3 m.

Type: Tanker. MMSI: 538006773.

Date/timePositionNaut miles runAvg speedWind from/ knotsBaromVisibWave heightAir tempDewpointWater temp
2017-Nov-23 07:28N 38°36' W 074°48'3 6.0
2017-Nov-23 06:59N 38°34' W 074°46'3 6.1
2017-Nov-23 06:25N 38°33' W 074°41'2 5.2
2017-Nov-23 06:00N 38°33' W 074°39'  
2017-Nov-20 00:29N 38°60' W 075°13'0 0.0
2017-Nov-19 23:59N 39°00' W 075°13'0 0.3
2017-Nov-19 23:29N 38°60' W 075°13'0 0.6
2017-Nov-19 23:00N 38°60' W 075°13'2 3.3
2017-Nov-19 22:30N 38°58' W 075°12'4 8.7
2017-Nov-19 22:00N 38°55' W 075°08'8 9.0
2017-Nov-19 21:06N 39°03' W 075°10'214.6
2017-Nov-19 20:57N 39°05' W 075°11'715.1
2017-Nov-19 20:31N 39°11' W 075°16'815.6
2017-Nov-19 20:00N 39°17' W 075°22'816.0
2017-Nov-19 19:30N 39°23' W 075°29'714.4
2017-Nov-19 19:01N 39°29' W 075°34'510.1
2017-Nov-19 18:31N 39°34' W 075°34'2 2.8
2017-Nov-19 17:59N 39°35' W 075°35'0 0.0
2017-Nov-19 17:29N 39°35' W 075°35'0 0.0
2017-Nov-19 16:59N 39°35' W 075°35'0 0.0
2017-Nov-19 16:29N 39°35' W 075°35'0 0.0
2017-Nov-19 15:59N 39°35' W 075°35'0 0.0
2017-Nov-19 15:29N 39°35' W 075°35'0 0.0
2017-Nov-19 14:59N 39°35' W 075°35'0 0.0
2017-Nov-19 14:29N 39°35' W 075°35'0 0.0
2017-Nov-19 13:59N 39°35' W 075°35'0 0.0
2017-Nov-19 13:29N 39°35' W 075°35'0 0.0
2017-Nov-19 12:59N 39°35' W 075°35'0 0.0
2017-Nov-19 12:29N 39°35' W 075°35'0 0.0
2017-Nov-19 11:59N 39°35' W 075°35'0 0.0
2017-Nov-19 11:29N 39°35' W 075°35'0 0.0
2017-Nov-19 10:59N 39°35' W 075°35'0 0.0
2017-Nov-19 10:29N 39°35' W 075°35'0 0.0
2017-Nov-19 09:53N 39°35' W 075°35'0 0.0
2017-Nov-19 09:29N 39°35' W 075°35'0 0.0
2017-Nov-19 08:59N 39°35' W 075°35'0 0.0
2017-Nov-19 08:29N 39°35' W 075°35'0 0.0
2017-Nov-19 07:59N 39°35' W 075°35'0 0.0
2017-Nov-19 07:29N 39°35' W 075°35'0 0.0
2017-Nov-19 06:59N 39°35' W 075°35'0 0.0
2017-Nov-19 06:29N 39°35' W 075°35'0 0.0
2017-Nov-19 05:59N 39°35' W 075°35'0 0.0
2017-Nov-19 05:29N 39°35' W 075°35'0 0.0
2017-Nov-19 04:59N 39°35' W 075°35'0 0.0
2017-Nov-19 04:29N 39°35' W 075°35'0 0.0
2017-Nov-19 03:59N 39°35' W 075°35'0 0.0
2017-Nov-19 03:29N 39°35' W 075°35'0 0.0
2017-Nov-19 02:59N 39°35' W 075°35'0 0.0
2017-Nov-19 02:29N 39°35' W 075°35'0 0.0
2017-Nov-19 01:59N 39°35' W 075°35'0 0.0
2017-Nov-19 01:29N 39°35' W 075°35'0 0.0
2017-Nov-19 00:59N 39°35' W 075°35'0 0.0
2017-Nov-19 00:29N 39°35' W 075°35'0 0.0
2017-Nov-18 23:59N 39°35' W 075°35'0 0.0
2017-Nov-18 23:29N 39°35' W 075°35'0 0.0
2017-Nov-18 22:59N 39°35' W 075°35'0 0.0
2017-Nov-18 22:29N 39°35' W 075°35'0 0.0
2017-Nov-18 21:59N 39°35' W 075°35'0 0.0
2017-Nov-18 21:29N 39°35' W 075°35'0 0.0
2017-Nov-18 20:59N 39°35' W 075°35'0 0.0
2017-Nov-18 20:29N 39°35' W 075°35'0 0.0
2017-Nov-18 19:59N 39°35' W 075°35'0 0.0
2017-Nov-18 19:29N 39°35' W 075°35'0 0.0
2017-Nov-18 18:59N 39°35' W 075°35'0 0.1
2017-Nov-18 18:31N 39°35' W 075°35'2 3.7
2017-Nov-18 18:01N 39°34' W 075°33'0 0.7
2017-Nov-18 17:31N 39°34' W 075°33'2 4.0
2017-Nov-18 17:00N 39°36' W 075°34'3 5.6
2017-Nov-18 16:30N 39°39' W 075°33'4 8.9
2017-Nov-18 16:00N 39°43' W 075°31'4 8.0
2017-Nov-18 15:30N 39°46' W 075°28'3 6.4
2017-Nov-18 15:00N 39°48' W 075°25'0 0.4
2017-Nov-18 14:29N 39°48' W 075°25'0 0.0
2017-Nov-18 13:59N 39°48' W 075°25'0 0.0
2017-Nov-18 13:29N 39°48' W 075°25'0 0.2
2017-Nov-18 12:59N 39°48' W 075°25'0 0.4
2017-Nov-18 12:29N 39°48' W 075°25'0 0.1
2017-Nov-18 11:59N 39°48' W 075°25'0 0.0
2017-Nov-18 11:29N 39°48' W 075°25'0 0.0
2017-Nov-18 10:59N 39°48' W 075°25'0 0.0
2017-Nov-18 10:29N 39°48' W 075°25'0 0.0
2017-Nov-18 09:59N 39°48' W 075°25'0 0.0
2017-Nov-18 09:29N 39°48' W 075°25'0 0.0
2017-Nov-18 08:59N 39°48' W 075°25'0 0.0
2017-Nov-18 08:29N 39°48' W 075°25'0 0.0
2017-Nov-18 07:59N 39°48' W 075°25'0 0.6
2017-Nov-18 07:29N 39°48' W 075°25'0 0.2
2017-Nov-18 06:59N 39°48' W 075°25'0 0.0
2017-Nov-18 06:29N 39°48' W 075°25'0 0.0
2017-Nov-18 05:59N 39°48' W 075°25'0 0.0
2017-Nov-18 05:29N 39°48' W 075°25'0 0.0
2017-Nov-18 04:59N 39°48' W 075°25'0 0.0
2017-Nov-18 04:29N 39°48' W 075°25'0 0.0
2017-Nov-18 03:59N 39°48' W 075°25'0 0.0
2017-Nov-18 03:29N 39°48' W 075°25'0 0.0
2017-Nov-18 02:59N 39°48' W 075°25'0 0.0
2017-Nov-18 02:29N 39°48' W 075°25'0 0.0
2017-Nov-18 01:59N 39°48' W 075°25'0 0.0
2017-Nov-18 01:29N 39°48' W 075°25'0 0.0
2017-Nov-18 00:56N 39°48' W 075°25'0 0.0
2017-Nov-18 00:26N 39°48' W 075°25'0 0.0
2017-Nov-17 23:59N 39°48' W 075°25'0 0.0
2017-Nov-17 23:29N 39°48' W 075°25'0 0.0
2017-Nov-17 22:59N 39°48' W 075°25'0 0.0
2017-Nov-17 22:29N 39°48' W 075°25'0 0.0
2017-Nov-17 21:59N 39°48' W 075°25'0 0.0
2017-Nov-17 21:29N 39°48' W 075°25'0 0.0
2017-Nov-17 20:59N 39°48' W 075°25'0 0.0
2017-Nov-17 20:29N 39°48' W 075°25'0 0.0
2017-Nov-17 19:59N 39°48' W 075°25'0 0.0
2017-Nov-17 19:29N 39°48' W 075°25'0 0.0
2017-Nov-17 18:59N 39°48' W 075°25'0 0.0
2017-Nov-17 18:29N 39°48' W 075°25'0 0.0
2017-Nov-17 17:59N 39°48' W 075°25'0 0.0
2017-Nov-17 17:29N 39°48' W 075°25'0 0.0
2017-Nov-17 16:59N 39°48' W 075°25'0 0.0
2017-Nov-17 16:26N 39°48' W 075°25'0 0.0
2017-Nov-17 15:59N 39°48' W 075°25'0 0.0
2017-Nov-17 15:29N 39°48' W 075°25'0 0.0
2017-Nov-17 15:00N 39°48' W 075°25'0 0.3
2017-Nov-17 14:31N 39°48' W 075°25'3 5.5
2017-Nov-17 14:01N 39°47' W 075°28'5 9.5
2017-Nov-17 13:30N 39°42' W 075°31'612.4
2017-Nov-17 13:00N 39°37' W 075°35'612.4
2017-Nov-17 12:31N 39°31' W 075°33'611.3
2017-Nov-17 12:00N 39°25' W 075°31'713.2
2017-Nov-17 11:30N 39°21' W 075°26'612.9
2017-Nov-17 11:00N 39°16' W 075°20'612.7
2017-Nov-17 10:30N 39°10' W 075°16'612.8
2017-Nov-17 10:00N 39°05' W 075°11'612.8
2017-Nov-17 09:30N 38°59' W 075°08'511.0
2017-Nov-17 09:00N 38°54' W 075°06'3 5.8
2017-Nov-17 08:30N 38°55' W 075°09'5 8.0
2017-Nov-17 07:53N 38°59' W 075°12'1 1.5
2017-Nov-17 07:30N 38°59' W 075°13'0 0.1
2017-Nov-17 06:59N 38°59' W 075°13'0 0.0
2017-Nov-17 06:29N 38°59' W 075°13'0 0.1
2017-Nov-17 05:59N 38°59' W 075°13'0 0.0
2017-Nov-17 05:29N 38°59' W 075°13'0 0.0
2017-Nov-17 04:59N 38°59' W 075°13'0 0.0
2017-Nov-17 04:29N 38°59' W 075°13'0 0.0
2017-Nov-17 03:59N 38°59' W 075°13'0 0.0
2017-Nov-17 03:29N 38°59' W 075°13'0 0.0
2017-Nov-17 02:59N 38°59' W 075°13'0 0.0
2017-Nov-17 02:29N 38°59' W 075°13'0 0.0
2017-Nov-17 01:59N 38°59' W 075°13'0 0.0
2017-Nov-17 01:29N 38°59' W 075°13'0 0.2
2017-Nov-17 00:59N 38°59' W 075°13'0 0.3
2017-Nov-17 00:29N 38°59' W 075°13'0 0.1
2017-Nov-16 23:59N 38°59' W 075°13'0 0.0
2017-Nov-16 22:50N 38°59' W 075°13'0 0.1
2017-Nov-16 22:08N 38°59' W 075°13'0 0.1
2017-Nov-16 21:56N 38°59' W 075°13'0 0.1
2017-Nov-16 21:26N 38°59' W 075°13'0 0.2
2017-Nov-16 20:59N 38°59' W 075°13'0 0.1
2017-Nov-16 20:29N 38°59' W 075°13'0 0.1
2017-Nov-16 19:59N 38°59' W 075°13'0 0.0
2017-Nov-16 19:29N 38°59' W 075°13'0 0.0
2017-Nov-16 18:59N 38°59' W 075°13'0 0.0
2017-Nov-16 18:29N 38°59' W 075°13'0 0.1
2017-Nov-16 17:59N 38°59' W 075°13'0 0.1
2017-Nov-16 17:26N 38°59' W 075°13'0 0.0
2017-Nov-16 16:59N 38°59' W 075°13'0 0.0
2017-Nov-16 16:26N 38°59' W 075°13'0 0.0
2017-Nov-16 15:59N 38°59' W 075°13'0 0.1
2017-Nov-16 15:29N 38°59' W 075°13'0 0.1
2017-Nov-16 14:59N 38°59' W 075°13'0 0.0
2017-Nov-16 14:29N 38°59' W 075°13'0 0.2
2017-Nov-16 13:59N 38°59' W 075°13'0 0.2
2017-Nov-16 13:26N 38°59' W 075°13'0 0.1
2017-Nov-16 12:47N 38°59' W 075°13'0 0.0
2017-Nov-16 12:23N 38°59' W 075°13'0 0.0
2017-Nov-16 11:53N 38°59' W 075°13'0 0.0
2017-Nov-16 11:11N 38°59' W 075°13'0 0.0
2017-Nov-16 10:59N 38°59' W 075°13'0 0.0
2017-Nov-16 09:44N 38°59' W 075°13'0 0.0
2017-Nov-16 09:14N 38°59' W 075°13'0 0.2
2017-Nov-16 08:59N 38°59' W 075°13'0 0.3
2017-Nov-16 08:26N 38°59' W 075°13'0 0.2
2017-Nov-16 07:59N 38°59' W 075°13'0 0.1
2017-Nov-16 07:29N 38°59' W 075°13'0 0.0
2017-Nov-16 06:59N 38°59' W 075°13'0 0.0
2017-Nov-16 06:29N 38°59' W 075°13'0 0.0
2017-Nov-16 05:59N 38°59' W 075°13'0 0.0
2017-Nov-16 05:29N 38°59' W 075°13'0 0.0
2017-Nov-16 04:59N 38°59' W 075°13'0 0.0
2017-Nov-16 04:29N 38°59' W 075°13'0 0.0
2017-Nov-16 03:59N 38°59' W 075°13'0 0.0
2017-Nov-16 03:29N 38°59' W 075°13'0 0.3
2017-Nov-16 02:59N 38°59' W 075°13'0 0.2
2017-Nov-16 01:53N 38°59' W 075°13'0 0.0
2017-Nov-16 00:59N 38°59' W 075°13'0 0.1
2017-Nov-16 00:29N 38°59' W 075°13'0 0.1
2017-Nov-15 23:53N 38°59' W 075°13'0 0.0
2017-Nov-15 23:20N 38°59' W 075°13'0 0.0
2017-Nov-15 22:59N 38°59' W 075°13'0 0.0
2017-Nov-15 22:29N 38°59' W 075°13'0 0.0
2017-Nov-15 21:59N 38°59' W 075°13'0 0.0
2017-Nov-15 21:29N 38°59' W 075°13'0 0.1
2017-Nov-15 20:53N 38°59' W 075°13'0 0.4
2017-Nov-15 20:29N 38°59' W 075°13'0 0.1
2017-Nov-15 19:56N 38°59' W 075°13'0 0.0
2017-Nov-15 19:29N 38°59' W 075°13'0 0.0
2017-Nov-15 18:59N 38°59' W 075°13'0 0.0
2017-Nov-15 18:26N 38°59' W 075°13'0 0.1
2017-Nov-15 17:59N 38°59' W 075°13'0 0.0
2017-Nov-15 17:29N 38°59' W 075°13'0 0.0
2017-Nov-15 16:59N 38°59' W 075°13'0 0.0
2017-Nov-15 16:29N 38°59' W 075°13'0 0.0
2017-Nov-15 15:56N 38°59' W 075°13'0 0.1
2017-Nov-15 15:29N 38°59' W 075°13'0 0.1
2017-Nov-15 14:59N 38°59' W 075°13'0 0.1
2017-Nov-15 14:29N 38°59' W 075°13'0 0.0
2017-Nov-15 13:59N 38°59' W 075°13'0 0.0
2017-Nov-15 13:29N 38°59' W 075°13'0 0.0
2017-Nov-15 12:59N 38°59' W 075°13'0 0.2
2017-Nov-15 12:29N 38°59' W 075°13'0 0.2
2017-Nov-15 11:56N 38°59' W 075°13'0 0.1
2017-Nov-15 11:29N 38°59' W 075°13'0 0.0
2017-Nov-15 10:59N 38°59' W 075°13'0 0.0
2017-Nov-15 10:29N 38°59' W 075°13'0 0.0
2017-Nov-15 09:59N 38°59' W 075°13'0 0.0
2017-Nov-15 09:29N 38°59' W 075°13'0 0.0
2017-Nov-15 08:59N 38°59' W 075°13'0 0.1
2017-Nov-15 08:29N 38°59' W 075°13'0 0.1
2017-Nov-15 07:59N 38°59' W 075°13'0 0.3
2017-Nov-15 07:29N 38°59' W 075°13'0 0.2
2017-Nov-15 06:59N 38°59' W 075°13'0 0.0
2017-Nov-15 06:29N 38°59' W 075°13'0 0.0
2017-Nov-15 05:59N 38°59' W 075°13'0 0.0
2017-Nov-15 05:29N 38°59' W 075°13'0 0.0
2017-Nov-15 04:59N 38°59' W 075°13'0 0.0
2017-Nov-15 04:29N 38°59' W 075°13'0 0.0
2017-Nov-15 03:56N 38°59' W 075°13'0 0.0
2017-Nov-15 03:29N 38°59' W 075°13'0 0.0
2017-Nov-15 02:59N 38°59' W 075°13'0 0.0
2017-Nov-15 02:26N 38°59' W 075°13'0 0.0
2017-Nov-15 01:59N 38°59' W 075°13'0 0.0
2017-Nov-15 01:29N 38°59' W 075°13'0 0.0
2017-Nov-15 00:59N 38°59' W 075°13'0 0.1
2017-Nov-15 00:29N 38°59' W 075°13'0 0.2
2017-Nov-14 23:59N 38°59' W 075°13'0 0.2
2017-Nov-14 23:29N 38°59' W 075°13'0 0.0
2017-Nov-14 22:59N 38°59' W 075°13'0 0.0
2017-Nov-14 22:29N 38°59' W 075°13'0 0.0
2017-Nov-14 21:59N 38°59' W 075°13'0 0.1
2017-Nov-14 20:59N 38°59' W 075°13'0 0.1
2017-Nov-14 20:26N 38°59' W 075°13'0 0.4
2017-Nov-14 19:56N 38°59' W 075°13'0 0.1
2017-Nov-14 19:29N 38°59' W 075°13'0 0.0
2017-Nov-14 18:56N 38°59' W 075°13'0 0.0
2017-Nov-14 18:29N 38°59' W 075°13'0 0.0
2017-Nov-14 17:59N 38°59' W 075°13'0 0.0
2017-Nov-14 17:29N 38°59' W 075°13'0 0.0
2017-Nov-14 16:59N 38°59' W 075°13'0 0.0
2017-Nov-14 16:29N 38°59' W 075°13'0 0.0
2017-Nov-14 15:59N 38°59' W 075°13'0 0.0
2017-Nov-14 15:29N 38°59' W 075°13'0 0.0
2017-Nov-14 14:59N 38°59' W 075°13'0 0.0
2017-Nov-14 14:29N 38°59' W 075°13'0 0.0
2017-Nov-14 13:59N 38°59' W 075°13'0 0.0
2017-Nov-14 13:29N 38°59' W 075°13'0 0.0
2017-Nov-14 12:59N 38°59' W 075°13'0 0.0
2017-Nov-14 12:26N 38°59' W 075°13'0 0.1
2017-Nov-14 11:59N 38°59' W 075°13'0 0.3
2017-Nov-14 11:29N 38°59' W 075°13'0 0.2
2017-Nov-14 10:59N 38°59' W 075°13'0 0.1
2017-Nov-14 10:29N 38°59' W 075°13'0 0.0
2017-Nov-14 09:59N 38°59' W 075°13'0 0.0
2017-Nov-14 09:29N 38°59' W 075°13'0 0.0
2017-Nov-14 08:59N 38°59' W 075°13'0 0.0
2017-Nov-14 08:29N 38°59' W 075°13'0 0.2
2017-Nov-14 07:59N 38°59' W 075°13'0 0.2
2017-Nov-14 07:29N 38°59' W 075°13'0 0.2
2017-Nov-14 06:59N 38°59' W 075°13'0 0.1
2017-Nov-14 06:29N 38°59' W 075°13'0 0.1
2017-Nov-14 05:56N 38°59' W 075°13'0 0.0
2017-Nov-14 05:29N 38°59' W 075°13'0 0.0
2017-Nov-14 04:59N 38°59' W 075°13'0 0.0
2017-Nov-14 04:29N 38°59' W 075°13'0 0.0
2017-Nov-14 03:59N 38°59' W 075°13'0 0.0
2017-Nov-14 03:23N 38°59' W 075°13'0 0.0
2017-Nov-14 02:59N 38°59' W 075°13'0 0.0
2017-Nov-14 02:29N 38°59' W 075°13'0 0.0
2017-Nov-14 01:56N 38°59' W 075°13'0 0.0
2017-Nov-14 01:29N 38°59' W 075°13'0 0.0
2017-Nov-14 00:59N 38°59' W 075°13'0 0.0
2017-Nov-14 00:29N 38°59' W 075°13'0 0.0
2017-Nov-13 23:59N 38°59' W 075°13'0 0.3
2017-Nov-13 23:29N 38°59' W 075°13'0 0.2
2017-Nov-13 22:59N 38°59' W 075°13'0 0.1
2017-Nov-13 22:29N 38°59' W 075°13'0 0.1
2017-Nov-13 21:56N 38°59' W 075°13'  

Dump ship's entire track history